Time;durP1;ratioP1;P1;durP2;ratioP2;P2;SDS_P1;SDS_P2;PMS_P1;PMS_P2;Temp;Humidity;BMP_temperature;BMP_pressure;BME280_temperature;BME280_humidity;BME280_pressure;Samples;Min_cycle;Max_cycle;Signal;HPM_P1;HPM_P2
2023/05/17 00:00:08;;;;;;;17.33;5.30;;;11.20;99.90;;;;;;5071593;28;20197;-82
2023/05/17 00:02:35;;;;;;;14.07;4.30;;;11.30;99.90;;;;;;5071832;28;20629;-81
2023/05/17 00:05:02;;;;;;;18.37;5.23;;;11.40;99.90;;;;;;5073417;28;20193;-83
2023/05/17 00:07:29;;;;;;;19.47;5.33;;;11.40;99.90;;;;;;5093268;28;20497;-84
2023/05/17 00:09:56;;;;;;;17.63;4.67;;;11.40;99.90;;;;;;5091702;28;20279;-79
2023/05/17 00:12:24;;;;;;;14.17;4.67;;;11.40;99.90;;;;;;5071906;28;20619;-78
2023/05/17 00:14:52;;;;;;;16.47;4.90;;;11.40;99.90;;;;;;5071591;28;20552;-78
2023/05/17 00:17:19;;;;;;;16.63;4.60;;;11.40;99.90;;;;;;5072165;28;20193;-80
2023/05/17 00:19:46;;;;;;;18.43;5.73;;;11.50;99.90;;;;;;5082880;28;20292;-78
2023/05/17 00:22:12;;;;;;;17.53;5.63;;;11.50;99.90;;;;;;5092223;28;20284;-79
2023/05/17 00:24:39;;;;;;;14.30;4.40;;;11.50;99.90;;;;;;5093977;28;20208;-79
2023/05/17 00:27:06;;;;;;;13.13;4.07;;;11.50;99.90;;;;;;5087798;28;20205;-80
2023/05/17 00:29:35;;;;;;;16.63;4.20;;;11.50;99.90;;;;;;5075752;28;20493;-79
2023/05/17 00:32:02;;;;;;;15.07;4.27;;;11.60;99.90;;;;;;5089840;28;20212;-81
2023/05/17 00:34:29;;;;;;;14.23;4.13;;;11.60;99.90;;;;;;5095254;28;20615;-81
2023/05/17 00:36:55;;;;;;;15.80;4.67;;;11.60;99.90;;;;;;5094807;28;20598;-81
2023/05/17 00:39:22;;;;;;;13.53;4.30;;;11.60;99.90;;;;;;5095664;28;20202;-78
2023/05/17 00:41:49;;;;;;;15.53;4.50;;;11.60;99.90;;;;;;5094888;28;20207;-79
2023/05/17 00:44:16;;;;;;;14.20;4.47;;;11.50;99.90;;;;;;5094110;28;20196;-80
2023/05/17 00:46:45;;;;;;;14.50;4.33;;;11.50;99.90;;;;;;5076248;28;20293;-82
2023/05/17 00:49:12;;;;;;;16.33;3.40;;;11.50;99.90;;;;;;5076000;28;20753;-83
2023/05/17 00:51:40;;;;;;;11.53;3.83;;;11.50;99.90;;;;;;5076473;28;20220;-83
2023/05/17 00:54:07;;;;;;;14.33;4.13;;;11.50;99.90;;;;;;5078008;28;20201;-82
2023/05/17 00:56:34;;;;;;;19.30;4.80;;;11.50;99.90;;;;;;5096295;28;20237;-82
2023/05/17 00:59:02;;;;;;;17.00;4.10;;;11.60;99.90;;;;;;5097198;28;20222;-84
2023/05/17 01:01:30;;;;;;;13.17;3.77;;;11.60;99.90;;;;;;5088546;28;20288;-83
2023/05/17 01:03:59;;;;;;;12.60;4.00;;;11.60;99.90;;;;;;5076139;28;20217;-84
2023/05/17 01:06:25;;;;;;;12.47;4.37;;;11.60;99.90;;;;;;5076429;28;20193;-83
2023/05/17 01:08:53;;;;;;;16.30;4.40;;;11.70;99.90;;;;;;5076201;28;20228;-84
2023/05/17 01:11:37;;;;;;;19.80;5.03;;;11.70;99.90;;;;;;5076931;28;20288;-84
2023/05/17 01:14:16;;;;;;;13.73;3.47;;;11.70;99.90;;;;;;5075913;28;20637;-78
2023/05/17 01:16:50;;;;;;;16.87;3.83;;;11.70;99.90;;;;;;5085519;28;20220;-78
2023/05/17 01:19:41;;;;;;;19.10;4.07;;;11.70;99.90;;;;;;5095794;28;20184;-80
2023/05/17 01:22:19;;;;;;;12.63;3.73;;;11.70;99.90;;;;;;5075550;28;20286;-83
2023/05/17 01:24:53;;;;;;;15.30;3.63;;;11.70;99.90;;;;;;5075195;28;20197;-83
2023/05/17 01:27:25;;;;;;;11.50;3.90;;;11.70;99.90;;;;;;5074652;28;20208;-85
2023/05/17 01:29:54;;;;;;;11.70;3.33;;;11.60;99.90;;;;;;5075485;28;20199;-82
2023/05/17 01:32:21;;;;;;;20.03;4.30;;;11.60;99.90;;;;;;5074515;28;20212;-83
2023/05/17 01:34:48;;;;;;;12.90;3.43;;;11.60;99.90;;;;;;5074570;28;20198;-82
2023/05/17 01:37:15;;;;;;;9.27;4.00;;;11.60;99.90;;;;;;5074670;28;20229;-83
2023/05/17 01:39:42;;;;;;;13.80;3.57;;;11.60;99.90;;;;;;5074492;28;20197;-78
2023/05/17 01:42:21;;;;;;;11.80;3.30;;;11.60;99.90;;;;;;5072869;28;20217;-81
2023/05/17 01:44:56;;;;;;;13.03;4.60;;;11.50;99.90;;;;;;5075439;28;20225;-81
2023/05/17 01:47:32;;;;;;;12.53;4.20;;;11.50;99.90;;;;;;5074480;28;20228;-81
2023/05/17 01:50:03;;;;;;;10.70;3.10;;;11.40;99.90;;;;;;5074121;28;20205;-79
2023/05/17 01:52:35;;;;;;;9.43;2.97;;;11.40;99.90;;;;;;5073748;28;20729;-79
2023/05/17 01:55:08;;;;;;;15.47;3.67;;;11.40;99.90;;;;;;5074245;28;20201;-84
2023/05/17 01:57:36;;;;;;;15.53;3.57;;;11.40;99.90;;;;;;5074902;28;20288;-80
2023/05/17 02:00:08;;;;;;;14.37;4.20;;;11.40;99.90;;;;;;5074128;28;20209;-82
2023/05/17 02:02:35;;;;;;;17.30;5.40;;;11.30;99.90;;;;;;5074487;28;20221;-82
2023/05/17 02:05:02;;;;;;;10.90;3.37;;;11.20;99.90;;;;;;5074378;28;20203;-82
2023/05/17 02:07:29;;;;;;;11.93;3.23;;;11.20;99.90;;;;;;5087240;28;20292;-83
2023/05/17 02:09:56;;;;;;;15.80;4.03;;;11.10;99.90;;;;;;5094160;28;20208;-81
2023/05/17 02:12:24;;;;;;;11.10;3.20;;;11.10;99.90;;;;;;5082323;28;20227;-82
2023/05/17 02:14:51;;;;;;;14.90;3.70;;;11.10;99.90;;;;;;5073832;28;20233;-82
2023/05/17 02:17:19;;;;;;;16.47;3.80;;;11.10;99.90;;;;;;5085605;28;20226;-82
2023/05/17 02:19:46;;;;;;;17.57;4.43;;;11.00;99.90;;;;;;5081942;28;20272;-84
2023/05/17 02:22:13;;;;;;;17.50;3.50;;;10.90;99.90;;;;;;5074005;28;20247;-84
2023/05/17 02:24:39;;;;;;;10.00;2.97;;;10.90;99.90;;;;;;5073876;28;20205;-83
2023/05/17 02:27:06;;;;;;;16.70;3.47;;;10.80;99.90;;;;;;5074124;28;20197;-82
2023/05/17 02:29:33;;;;;;;12.33;3.00;;;10.80;99.90;;;;;;5073894;28;20220;-79
2023/05/17 02:32:00;;;;;;;23.40;4.07;;;10.70;99.90;;;;;;5073560;28;20601;-79
2023/05/17 02:34:29;;;;;;;18.47;4.10;;;10.70;99.90;;;;;;5073382;28;20280;-82
2023/05/17 02:36:55;;;;;;;17.63;3.17;;;10.50;99.90;;;;;;5073885;28;20223;-83
2023/05/17 02:39:22;;;;;;;13.70;3.07;;;10.50;99.90;;;;;;5092158;28;20261;-82
2023/05/17 02:41:49;;;;;;;13.70;3.03;;;10.40;99.90;;;;;;5093609;28;20228;-79
2023/05/17 02:44:16;;;;;;;17.30;3.53;;;10.30;99.90;;;;;;5094232;28;20308;-81
2023/05/17 02:46:43;;;;;;;9.23;2.80;;;10.30;99.90;;;;;;5092180;28;20203;-83
2023/05/17 02:49:10;;;;;;;15.33;3.60;;;10.30;99.90;;;;;;5093382;28;20200;-81
2023/05/17 02:51:38;;;;;;;11.60;3.13;;;10.20;99.90;;;;;;5093760;28;20224;-81
2023/05/17 02:54:05;;;;;;;10.93;3.03;;;10.20;99.90;;;;;;5093354;28;20569;-81
2023/05/17 02:56:32;;;;;;;10.23;2.63;;;10.20;99.90;;;;;;5093396;28;20696;-81
2023/05/17 02:59:00;;;;;;;13.30;2.90;;;10.10;99.90;;;;;;5077425;28;20205;-81
2023/05/17 03:01:27;;;;;;;11.77;2.67;;;10.10;99.90;;;;;;5076968;28;20503;-80
2023/05/17 03:03:54;;;;;;;8.87;2.63;;;10.00;99.90;;;;;;5093175;28;20192;-82
2023/05/17 03:06:20;;;;;;;12.73;2.70;;;10.00;99.90;;;;;;5077125;28;20193;-82
2023/05/17 03:08:49;;;;;;;7.57;2.10;;;9.90;99.90;;;;;;5092862;28;20218;-81
2023/05/17 03:11:16;;;;;;;12.53;3.33;;;9.90;99.90;;;;;;5093227;28;20197;-82
2023/05/17 03:13:45;;;;;;;11.77;2.60;;;9.80;99.90;;;;;;5093436;28;20283;-80
2023/05/17 03:16:11;;;;;;;12.27;2.90;;;9.80;99.90;;;;;;5073297;28;20225;-81
2023/05/17 03:18:38;;;;;;;11.73;2.80;;;9.70;99.90;;;;;;5072909;28;20189;-81
2023/05/17 03:21:05;;;;;;;9.30;2.40;;;9.70;99.90;;;;;;5072786;28;20287;-81
2023/05/17 03:23:32;;;;;;;7.10;1.80;;;9.70;99.90;;;;;;5072379;28;20262;-82
2023/05/17 03:26:00;;;;;;;8.77;2.23;;;9.60;99.90;;;;;;5073045;28;20197;-80
2023/05/17 03:28:27;;;;;;;8.63;2.67;;;9.60;99.90;;;;;;5072743;28;20228;-81
2023/05/17 03:30:54;;;;;;;14.73;3.30;;;9.60;99.90;;;;;;5072500;28;20220;-81
2023/05/17 03:33:21;;;;;;;9.87;2.27;;;9.60;99.90;;;;;;5072879;28;20202;-81
2023/05/17 03:35:48;;;;;;;9.43;2.60;;;9.50;99.90;;;;;;5072879;28;20203;-80
2023/05/17 03:38:15;;;;;;;9.37;2.80;;;9.50;99.90;;;;;;5072210;28;20621;-81
2023/05/17 03:40:42;;;;;;;5.77;2.27;;;9.40;99.90;;;;;;5092754;28;20205;-83
2023/05/17 03:43:10;;;;;;;6.97;1.97;;;9.40;99.90;;;;;;5092824;28;20663;-83
2023/05/17 03:45:37;;;;;;;16.63;3.50;;;9.40;99.90;;;;;;5091550;28;20188;-81
2023/05/17 03:48:05;;;;;;;14.47;2.80;;;9.40;99.90;;;;;;5092637;28;20193;-79
2023/05/17 03:50:31;;;;;;;9.77;2.83;;;9.30;99.90;;;;;;5092828;28;20285;-81
2023/05/17 03:52:58;;;;;;;11.27;2.63;;;9.30;99.90;;;;;;5092160;28;20228;-82
2023/05/17 03:55:25;;;;;;;9.17;2.50;;;9.30;99.90;;;;;;5084454;28;20240;-81
2023/05/17 03:57:52;;;;;;;8.97;2.90;;;9.30;99.90;;;;;;5072689;28;20229;-82
2023/05/17 04:00:21;;;;;;;9.03;2.50;;;9.30;99.90;;;;;;5077330;28;20211;-82
2023/05/17 04:02:48;;;;;;;14.27;2.80;;;9.30;99.90;;;;;;5091119;28;20291;-81
2023/05/17 04:05:15;;;;;;;12.10;2.50;;;9.30;99.90;;;;;;5097070;28;20197;-82
2023/05/17 04:07:42;;;;;;;8.90;3.57;;;9.30;99.90;;;;;;5094084;28;20200;-82
2023/05/17 04:10:09;;;;;;;12.20;2.63;;;9.30;99.90;;;;;;5076674;28;20605;-82
2023/05/17 04:12:36;;;;;;;12.47;3.10;;;9.20;99.90;;;;;;5075448;28;20205;-82
2023/05/17 04:15:04;;;;;;;8.70;2.33;;;9.20;99.90;;;;;;5076248;28;20637;-81
2023/05/17 04:17:33;;;;;;;12.00;2.70;;;9.20;99.90;;;;;;5080820;28;20705;-81
2023/05/17 04:19:59;;;;;;;14.73;3.60;;;9.30;99.90;;;;;;5096202;28;20196;-81
2023/05/17 04:22:26;;;;;;;9.73;2.43;;;9.50;99.90;;;;;;5084058;28;20301;-79
2023/05/17 04:24:53;;;;;;;10.33;3.10;;;9.50;99.90;;;;;;5076420;28;20193;-80
2023/05/17 04:27:21;;;;;;;15.77;3.03;;;9.60;99.90;;;;;;5075465;28;20204;-81
2023/05/17 04:29:48;;;;;;;8.93;2.57;;;9.60;99.90;;;;;;5054992;28;20525;-82
2023/05/17 04:32:15;;;;;;;16.87;3.40;;;9.70;99.90;;;;;;5075467;28;20288;-81
2023/05/17 04:34:43;;;;;;;12.77;2.83;;;9.70;99.90;;;;;;5077072;28;20202;-81
2023/05/17 04:37:10;;;;;;;11.57;2.73;;;9.80;99.90;;;;;;5096539;28;20308;-81
2023/05/17 04:39:37;;;;;;;16.73;3.53;;;9.90;99.90;;;;;;5089596;28;20209;-83
2023/05/17 04:42:04;;;;;;;14.07;3.47;;;9.90;99.90;;;;;;5075880;28;20233;-82
2023/05/17 04:44:31;;;;;;;12.13;3.17;;;9.90;99.90;;;;;;5085183;28;20235;-82
2023/05/17 04:46:58;;;;;;;15.57;3.33;;;10.00;99.90;;;;;;5096318;28;20201;-83
2023/05/17 04:49:25;;;;;;;8.40;2.10;;;10.00;99.90;;;;;;5086319;28;20296;-80
2023/05/17 04:51:53;;;;;;;13.23;3.53;;;10.10;99.90;;;;;;5076478;28;20224;-83
2023/05/17 04:54:20;;;;;;;12.00;3.10;;;10.20;99.90;;;;;;5075727;28;20230;-80
2023/05/17 04:56:47;;;;;;;13.43;2.77;;;10.20;99.90;;;;;;5076745;28;20232;-84
2023/05/17 04:59:14;;;;;;;14.00;3.37;;;10.20;99.90;;;;;;5076681;28;20200;-79
2023/05/17 05:01:41;;;;;;;18.80;3.63;;;10.30;99.90;;;;;;5076436;28;20194;-82
2023/05/17 05:04:08;;;;;;;14.10;3.50;;;10.40;99.90;;;;;;5076804;28;20231;-83
2023/05/17 05:06:35;;;;;;;13.40;2.80;;;10.50;99.90;;;;;;5077019;28;20276;-80
2023/05/17 05:09:04;;;;;;;13.70;3.50;;;10.50;99.90;;;;;;5077563;28;20227;-83
2023/05/17 05:11:31;;;;;;;15.63;3.07;;;10.60;99.90;;;;;;5076858;28;20214;-81
2023/05/17 05:13:58;;;;;;;10.27;2.60;;;10.60;99.90;;;;;;5078410;28;20198;-81
2023/05/17 05:16:25;;;;;;;21.20;3.40;;;10.70;99.90;;;;;;5080522;28;20225;-80
2023/05/17 05:18:52;;;;;;;7.60;2.20;;;10.80;99.90;;;;;;5090134;28;20281;-81
2023/05/17 05:21:18;;;;;;;8.37;2.03;;;10.80;99.90;;;;;;5090734;28;20217;-84
2023/05/17 05:23:45;;;;;;;12.40;2.10;;;10.80;99.90;;;;;;5104478;28;20542;-80
2023/05/17 05:26:14;;;;;;;11.53;3.03;;;10.90;99.90;;;;;;5106820;28;20224;-83
2023/05/17 05:28:40;;;;;;;5.90;1.50;;;10.90;99.90;;;;;;5095711;28;20236;-80
2023/05/17 05:31:07;;;;;;;7.27;1.80;;;11.00;99.90;;;;;;5080426;28;20197;-85
2023/05/17 05:33:35;;;;;;;7.30;1.73;;;11.10;99.90;;;;;;5080101;28;20193;-82
2023/05/17 05:36:02;;;;;;;9.97;2.33;;;11.20;99.90;;;;;;5080719;28;20233;-82
2023/05/17 05:38:28;;;;;;;7.53;1.93;;;11.30;99.90;;;;;;5074569;28;20312;-83
2023/05/17 05:40:55;;;;;;;7.20;1.60;;;11.50;99.90;;;;;;5081958;28;20597;-81
2023/05/17 05:43:24;;;;;;;9.40;1.93;;;11.70;99.90;;;;;;5089166;28;20625;-81
2023/05/17 05:45:51;;;;;;;11.80;3.23;;;11.80;99.90;;;;;;5094907;28;20278;-79
2023/05/17 05:48:17;;;;;;;6.57;2.00;;;12.00;99.90;;;;;;5082841;28;20212;-83
2023/05/17 05:50:45;;;;;;;7.70;2.07;;;12.20;99.90;;;;;;5074812;28;20232;-82
2023/05/17 05:53:12;;;;;;;7.73;1.80;;;12.50;99.90;;;;;;5074205;28;20308;-80
2023/05/17 05:55:41;;;;;;;16.27;3.07;;;12.80;99.90;;;;;;5073914;28;20232;-79
2023/05/17 05:58:08;;;;;;;7.20;1.90;;;12.90;99.90;;;;;;5074432;28;20313;-82
2023/05/17 06:00:36;;;;;;;9.57;2.27;;;13.00;99.90;;;;;;5074446;28;20293;-81
2023/05/17 06:03:04;;;;;;;8.53;1.70;;;13.00;99.90;;;;;;5073863;28;20581;-81
2023/05/17 06:05:31;;;;;;;5.53;1.90;;;13.10;99.90;;;;;;5073624;28;20608;-80
2023/05/17 06:07:58;;;;;;;14.73;2.43;;;13.20;99.90;;;;;;5074159;28;20206;-83
2023/05/17 06:10:25;;;;;;;9.00;2.07;;;13.30;99.90;;;;;;5073618;28;20292;-78
2023/05/17 06:12:52;;;;;;;7.60;1.70;;;13.30;99.90;;;;;;5073590;28;20221;-82
2023/05/17 06:15:19;;;;;;;7.30;1.70;;;13.50;99.90;;;;;;5073544;28;20208;-81
2023/05/17 06:17:47;;;;;;;5.43;2.00;;;13.70;99.90;;;;;;5073927;28;20248;-82
2023/05/17 06:20:15;;;;;;;6.67;1.60;;;13.80;99.90;;;;;;5072932;28;20201;-80
2023/05/17 06:22:42;;;;;;;4.73;1.50;;;13.80;99.90;;;;;;5072929;28;20213;-80
2023/05/17 06:25:10;;;;;;;7.33;1.60;;;13.90;99.90;;;;;;5072989;28;20211;-82
2023/05/17 06:27:37;;;;;;;6.60;2.00;;;14.00;99.90;;;;;;5072594;28;20201;-80
2023/05/17 06:30:05;;;;;;;6.40;1.87;;;14.30;99.90;;;;;;5087941;28;20296;-82
2023/05/17 06:32:31;;;;;;;7.30;1.50;;;14.70;99.90;;;;;;5092932;28;20200;-78
2023/05/17 06:35:00;;;;;;;6.53;1.30;;;14.70;99.90;;;;;;5061552;28;20198;-81
2023/05/17 06:37:27;;;;;;;13.10;2.07;;;14.90;99.90;;;;;;5073147;28;20213;-79
2023/05/17 06:40:01;;;;;;;6.37;1.63;;;15.20;99.90;;;;;;5073006;28;20197;-79
2023/05/17 06:42:28;;;;;;;5.27;1.40;;;15.30;99.90;;;;;;5082917;28;20196;-80
2023/05/17 06:44:55;;;;;;;5.15;1.50;;;15.40;99.90;;;;;;5093297;28;20193;-81
2023/05/17 06:47:22;;;;;;;6.88;2.00;;;15.50;99.90;;;;;;5093033;28;20222;-82
2023/05/17 06:49:49;;;;;;;7.53;1.48;;;15.60;99.90;;;;;;5093796;28;20200;-81
2023/05/17 06:52:17;;;;;;;6.57;2.08;;;15.80;99.90;;;;;;5083258;28;20660;-82
2023/05/17 06:54:44;;;;;;;5.78;1.83;;;15.70;99.90;;;;;;5073510;28;20559;-84
2023/05/17 06:57:11;;;;;;;7.90;1.60;;;16.00;99.90;;;;;;5081307;28;20636;-84
2023/05/17 06:59:38;;;;;;;7.03;1.90;;;16.30;99.90;;;;;;5087776;28;20202;-83
2023/05/17 07:02:05;;;;;;;7.65;1.73;;;16.50;99.90;;;;;;5072099;28;20582;-83
2023/05/17 07:04:32;;;;;;;5.40;1.55;;;16.40;99.90;;;;;;5075635;28;20204;-80
2023/05/17 07:06:59;;;;;;;9.50;1.73;;;16.50;99.90;;;;;;5093070;28;20201;-81
2023/05/17 07:09:27;;;;;;;6.60;1.75;;;16.50;99.90;;;;;;5087164;28;20201;-83
2023/05/17 07:11:54;;;;;;;5.05;1.88;;;16.70;99.90;;;;;;5079305;28;20203;-81
2023/05/17 07:14:21;;;;;;;6.70;1.98;;;16.80;99.90;;;;;;5077109;28;20575;-82
2023/05/17 07:16:48;;;;;;;8.63;1.85;;;16.60;99.90;;;;;;5070267;28;20255;-80
2023/05/17 07:19:15;;;;;;;7.93;2.60;;;16.40;99.90;;;;;;5083295;28;20208;-79
2023/05/17 07:21:42;;;;;;;10.10;2.10;;;16.40;99.90;;;;;;5078930;28;20197;-79
2023/05/17 07:24:09;;;;;;;7.65;1.55;;;16.20;99.90;;;;;;5086237;28;20283;-79
2023/05/17 07:26:37;;;;;;;7.15;2.03;;;16.10;99.90;;;;;;5083695;28;20205;-83
2023/05/17 07:29:05;;;;;;;8.80;2.08;;;16.00;99.90;;;;;;5089045;28;20207;-78
2023/05/17 07:31:32;;;;;;;5.30;1.90;;;16.10;99.90;;;;;;5091685;28;20248;-80
2023/05/17 07:33:58;;;;;;;11.20;2.10;;;15.90;99.90;;;;;;5091400;28;20204;-80
2023/05/17 07:36:29;;;;;;;6.97;1.92;;;16.10;99.90;;;;;;5071561;28;20636;-82
2023/05/17 07:38:56;;;;;;;5.55;1.45;;;16.20;99.90;;;;;;5082898;28;20233;-83
2023/05/17 07:41:23;;;;;;;6.45;1.98;;;16.30;99.90;;;;;;5072701;28;20494;-83
2023/05/17 07:43:52;;;;;;;14.20;2.80;;;16.40;99.90;;;;;;5077472;28;20196;-81
2023/05/17 07:46:18;;;;;;;7.25;1.90;;;16.20;99.90;;;;;;5092559;28;20195;-82
2023/05/17 07:48:45;;;;;;;10.27;2.08;;;16.10;99.90;;;;;;5084010;28;20293;-83
2023/05/17 07:51:12;;;;;;;7.72;1.65;;;15.90;99.90;;;;;;5071891;28;20236;-81
2023/05/17 07:53:39;;;;;;;8.38;2.13;;;16.10;99.90;;;;;;5071753;28;20199;-79
2023/05/17 07:56:07;;;;;;;5.03;1.52;;;16.20;99.90;;;;;;5071290;28;20233;-86
2023/05/17 07:58:35;;;;;;;7.13;2.17;;;16.30;99.90;;;;;;5071044;28;20217;-81
2023/05/17 08:01:03;;;;;;;6.10;1.50;;;16.70;99.90;;;;;;5071130;28;20504;-79
2023/05/17 08:03:30;;;;;;;8.40;2.08;;;16.60;99.90;;;;;;5077918;28;20741;-82
2023/05/17 08:05:56;;;;;;;6.88;1.92;;;16.50;99.90;;;;;;5091410;28;20196;-80
2023/05/17 08:08:23;;;;;;;5.35;1.65;;;16.60;99.90;;;;;;5090318;28;20200;-82
2023/05/17 08:10:50;;;;;;;5.57;1.52;;;16.70;99.90;;;;;;5088320;28;20197;-80
2023/05/17 08:13:17;;;;;;;6.30;1.52;;;16.80;99.90;;;;;;5081129;28;20219;-82
2023/05/17 08:15:44;;;;;;;5.07;1.90;;;16.80;99.90;;;;;;5087638;28;20200;-80
2023/05/17 08:18:12;;;;;;;3.88;1.30;;;17.00;99.90;;;;;;5086759;28;20238;-81
2023/05/17 08:20:39;;;;;;;10.38;1.70;;;17.30;99.90;;;;;;5088932;28;20287;-82
2023/05/17 08:23:06;;;;;;;4.88;1.25;;;17.30;99.90;;;;;;5081775;28;20204;-83
2023/05/17 08:25:33;;;;;;;5.82;1.58;;;17.50;99.90;;;;;;5086191;28;20749;-84
2023/05/17 08:28:01;;;;;;;4.95;1.40;;;17.90;99.90;;;;;;5073681;28;20280;-82
2023/05/17 08:30:28;;;;;;;6.80;1.50;;;17.80;99.90;;;;;;5086612;28;20283;-82
2023/05/17 08:32:55;;;;;;;4.05;1.80;;;17.90;99.90;;;;;;5081701;28;20231;-83
2023/05/17 08:35:24;;;;;;;4.90;1.58;;;18.10;99.90;;;;;;5086500;28;20555;-84
2023/05/17 08:37:51;;;;;;;6.38;1.40;;;18.00;99.90;;;;;;5083618;28;20224;-82
2023/05/17 08:40:21;;;;;;;5.68;1.55;;;18.20;99.90;;;;;;5083502;28;20207;-78
2023/05/17 08:42:48;;;;;;;7.70;1.65;;;18.00;99.90;;;;;;5085374;28;20283;-84
2023/05/17 08:45:16;;;;;;;6.35;1.35;;;17.70;99.90;;;;;;5081652;28;20553;-82
2023/05/17 08:47:45;;;;;;;5.25;1.50;;;18.00;99.90;;;;;;5086214;28;20201;-83
2023/05/17 08:50:13;;;;;;;6.10;1.95;;;18.40;99.90;;;;;;5088224;28;20216;-83
2023/05/17 08:52:45;;;;;;;5.38;1.40;;;18.70;99.90;;;;;;5090954;28;20648;-81
2023/05/17 08:55:15;;;;;;;5.38;1.25;;;18.50;99.90;;;;;;5079378;28;20196;-85
2023/05/17 08:57:42;;;;;;;7.00;1.83;;;18.40;99.90;;;;;;5081019;28;20221;-82
2023/05/17 09:00:15;;;;;;;6.30;1.80;;;18.70;99.90;;;;;;5082691;28;20196;-85
2023/05/17 09:02:42;;;;;;;6.20;1.63;;;18.90;99.90;;;;;;5087587;28;20255;-84
2023/05/17 09:05:10;;;;;;;6.47;1.75;;;18.60;99.90;;;;;;5084365;28;20288;-85
2023/05/17 09:07:37;;;;;;;3.85;1.50;;;18.60;99.90;;;;;;5088676;28;20506;-86
2023/05/17 09:10:06;;;;;;;3.78;1.60;;;18.20;99.90;;;;;;5080723;28;20208;-87
2023/05/17 09:12:34;;;;;;;6.38;1.75;;;18.20;99.90;;;;;;5088536;28;20612;-83
2023/05/17 09:15:18;;;;;;;4.18;1.52;;;18.40;99.90;;;;;;5088428;28;20666;-81
2023/05/17 09:17:56;;;;;;;6.25;1.75;;;18.60;99.90;;;;;;5084076;28;20601;-84
2023/05/17 09:20:32;;;;;;;9.50;1.90;;;18.60;99.90;;;;;;5086987;28;20503;-88
2023/05/17 09:23:03;;;;;;;5.88;1.70;;;18.60;99.90;;;;;;5088287;28;20197;-86
2023/05/17 09:25:36;;;;;;;6.60;1.70;;;18.20;99.90;;;;;;5086902;28;20555;-87
2023/05/17 09:28:08;;;;;;;7.75;1.50;;;18.30;99.90;;;;;;5084198;28;20624;-89
2023/05/17 09:30:38;;;;;;;6.53;1.58;;;18.00;99.90;;;;;;5076569;28;20204;-86
2023/05/17 09:33:06;;;;;;;7.45;1.85;;;18.10;99.90;;;;;;5094762;28;20208;-88
2023/05/17 09:35:34;;;;;;;9.80;1.77;;;17.70;99.90;;;;;;5088364;28;20197;-89
2023/05/17 09:38:07;;;;;;;5.28;1.90;;;17.80;99.90;;;;;;5078002;28;20225;-89
2023/05/17 09:40:38;;;;;;;5.70;1.80;;;17.80;99.90;;;;;;5075373;28;20201;-86
2023/05/17 09:43:05;;;;;;;6.97;1.85;;;17.90;99.90;;;;;;5074680;28;20211;-83
2023/05/17 09:45:32;;;;;;;6.18;2.33;;;17.90;99.90;;;;;;5076790;28;20261;-87
2023/05/17 09:48:12;;;;;;;7.80;1.65;;;17.90;99.90;;;;;;5076822;28;20597;-89
2023/05/17 09:50:45;;;;;;;7.50;1.70;;;18.00;99.90;;;;;;5083050;28;20222;-88
2023/05/17 09:53:24;;;;;;;5.03;1.15;;;18.00;99.90;;;;;;5094051;28;20228;-89
2023/05/17 09:55:55;;;;;;;6.30;1.33;;;18.20;99.90;;;;;;5093929;28;20228;-87
2023/05/17 09:58:22;;;;;;;5.35;2.00;;;18.30;99.90;;;;;;5082606;28;20241;-87
2023/05/17 10:00:53;;;;;;;5.88;1.70;;;18.20;99.90;;;;;;5089122;28;20584;-85
2023/05/17 10:03:22;;;;;;;6.32;1.75;;;18.30;99.90;;;;;;5092263;28;20209;-91
2023/05/17 10:05:52;;;;;;;4.05;1.30;;;18.30;99.90;;;;;;5084525;28;20631;-88
2023/05/17 10:08:24;;;;;;;5.32;1.75;;;18.40;99.90;;;;;;5093482;28;20208;-91
2023/05/17 10:10:54;;;;;;;6.13;1.77;;;18.30;99.90;;;;;;5093654;28;20204;-87
2023/05/17 10:13:24;;;;;;;9.57;1.83;;;18.00;99.90;;;;;;5090881;28;20216;-84
2023/05/17 10:15:52;;;;;;;5.57;1.63;;;18.00;99.90;;;;;;5095011;28;20533;-86
2023/05/17 10:18:20;;;;;;;10.00;2.00;;;17.80;99.90;;;;;;5095257;28;20285;-89
2023/05/17 10:20:48;;;;;;;3.80;1.27;;;17.50;99.90;;;;;;5083112;28;20217;-88
2023/05/17 10:23:15;;;;;;;7.25;1.80;;;17.70;99.90;;;;;;5087293;28;20632;-90
2023/05/17 10:25:43;;;;;;;8.30;1.75;;;17.90;99.90;;;;;;5095253;28;20215;-85
2023/05/17 10:28:11;;;;;;;13.32;2.50;;;18.00;99.90;;;;;;5084379;28;20209;-88
2023/05/17 10:30:39;;;;;;;7.50;1.98;;;18.20;99.90;;;;;;5075348;28;20311;-89
2023/05/17 10:33:07;;;;;;;10.85;2.28;;;18.50;99.90;;;;;;5074850;28;20296;-88
2023/05/17 10:35:35;;;;;;;7.03;1.63;;;18.50;99.90;;;;;;5074863;28;20209;-88
2023/05/17 10:38:02;;;;;;;4.70;1.73;;;18.40;99.90;;;;;;5074784;28;20228;-83
2023/05/17 10:40:30;;;;;;;9.30;1.98;;;18.40;99.90;;;;;;5079739;28;20204;-83
2023/05/17 10:42:58;;;;;;;8.48;1.80;;;18.60;99.90;;;;;;5089971;28;20531;-84
2023/05/17 10:45:27;;;;;;;9.20;1.80;;;18.70;99.90;;;;;;5093782;28;20236;-82
2023/05/17 10:47:55;;;;;;;7.57;2.13;;;18.70;99.90;;;;;;5085582;28;20208;-83
2023/05/17 10:50:22;;;;;;;6.00;1.55;;;18.60;99.90;;;;;;5076133;28;20284;-84
2023/05/17 10:52:50;;;;;;;8.38;1.90;;;18.70;99.90;;;;;;5072632;28;20245;-81
2023/05/17 10:55:23;;;;;;;5.07;2.45;;;18.30;99.90;;;;;;5073706;28;20324;-82
2023/05/17 10:58:14;;;;;;;7.38;1.67;;;18.10;99.90;;;;;;5085311;28;20736;-86
2023/05/17 11:00:45;;;;;;;9.70;1.95;;;17.90;99.90;;;;;;5091794;28;20542;-86
2023/05/17 11:03:17;;;;;;;8.40;2.33;;;17.70;99.90;;;;;;5073669;28;20201;-85
2023/05/17 11:06:06;;;;;;;8.57;2.10;;;17.70;99.90;;;;;;5075236;28;20227;-85
2023/05/17 11:08:34;;;;;;;9.05;1.70;;;17.80;99.90;;;;;;5075498;28;20213;-85
2023/05/17 11:11:11;;;;;;;5.47;1.67;;;18.00;99.90;;;;;;5073648;28;20276;-89
2023/05/17 11:13:52;;;;;;;4.68;1.50;;;18.10;99.90;;;;;;5079920;28;20534;-83
2023/05/17 11:16:22;;;;;;;10.10;1.98;;;18.40;99.90;;;;;;5092500;28;20600;-83
2023/05/17 11:18:51;;;;;;;8.43;1.80;;;18.20;99.90;;;;;;5055759;28;20335;-83
2023/05/17 11:21:18;;;;;;;8.02;2.10;;;18.00;99.90;;;;;;5073675;28;20204;-86
2023/05/17 11:23:48;;;;;;;11.65;2.00;;;17.90;99.90;;;;;;5073583;28;20202;-85
2023/05/17 11:26:22;;;;;;;5.78;1.90;;;17.80;99.90;;;;;;5073875;28;20205;-84
2023/05/17 11:29:01;;;;;;;5.35;1.98;;;17.40;99.90;;;;;;5072757;28;20588;-87
2023/05/17 11:31:32;;;;;;;7.43;1.75;;;17.50;99.90;;;;;;5073474;28;20194;-85
2023/05/17 11:33:59;;;;;;;8.38;1.73;;;17.50;99.90;;;;;;5073783;28;20784;-88
2023/05/17 11:36:26;;;;;;;5.32;1.98;;;17.40;99.90;;;;;;5074232;28;20201;-84
2023/05/17 11:39:14;;;;;;;6.60;2.10;;;17.70;99.90;;;;;;5074208;28;20563;-84
2023/05/17 11:41:49;;;;;;;5.50;1.92;;;17.90;99.90;;;;;;5073694;28;20570;-82
2023/05/17 11:44:40;;;;;;;7.05;1.70;;;17.70;99.90;;;;;;5079534;28;20199;-82
2023/05/17 11:47:08;;;;;;;10.52;2.03;;;17.90;99.90;;;;;;5080848;28;20228;-83
2023/05/17 11:49:38;;;;;;;8.82;2.17;;;17.80;99.90;;;;;;5077720;28;20196;-85
2023/05/17 11:52:06;;;;;;;8.07;2.30;;;18.10;99.90;;;;;;5083862;28;20296;-83
2023/05/17 11:54:37;;;;;;;4.28;1.40;;;18.20;99.90;;;;;;5090083;28;20227;-85
2023/05/17 11:57:05;;;;;;;5.53;1.45;;;18.20;99.90;;;;;;5061098;28;20233;-85
2023/05/17 11:59:38;;;;;;;9.07;1.88;;;18.10;99.90;;;;;;5071239;28;20227;-85
2023/05/17 12:02:05;;;;;;;6.80;1.98;;;18.30;99.90;;;;;;5063552;28;20362;-80
2023/05/17 12:04:36;;;;;;;8.00;1.98;;;18.10;99.90;;;;;;5070246;28;20631;-87
2023/05/17 12:07:03;;;;;;;5.18;1.70;;;18.10;99.90;;;;;;5068669;28;20847;-83
2023/05/17 12:09:30;;;;;;;9.95;2.08;;;18.10;99.90;;;;;;5072333;28;20201;-83
2023/05/17 12:12:03;;;;;;;8.32;2.10;;;17.90;99.90;;;;;;5070572;28;20244;-83
2023/05/17 12:14:30;;;;;;;6.50;1.80;;;18.00;99.90;;;;;;5052957;28;20194;-82
2023/05/17 12:17:01;;;;;;;6.30;2.10;;;17.90;99.90;;;;;;5052358;28;20214;-84
2023/05/17 12:19:29;;;;;;;5.20;1.52;;;18.00;99.90;;;;;;5053898;28;20218;-83
2023/05/17 12:22:07;;;;;;;9.38;2.03;;;17.70;99.90;;;;;;5057783;28;20490;-85
2023/05/17 12:24:38;;;;;;;6.65;1.80;;;17.80;99.90;;;;;;5056582;28;20277;-84
2023/05/17 12:27:07;;;;;;;8.25;1.85;;;17.90;99.90;;;;;;5069031;28;20685;-81
2023/05/17 12:29:34;;;;;;;9.23;2.30;;;17.90;99.90;;;;;;5076852;28;20209;-85
2023/05/17 12:32:01;;;;;;;7.60;2.38;;;18.00;99.90;;;;;;5076609;28;20201;-84
2023/05/17 12:34:30;;;;;;;8.43;2.15;;;17.90;99.90;;;;;;5076943;28;20205;-84
2023/05/17 12:36:57;;;;;;;8.05;1.85;;;18.00;99.90;;;;;;5048831;28;20278;-87
2023/05/17 12:39:25;;;;;;;7.32;2.20;;;18.10;99.90;;;;;;5055896;28;20232;-83
2023/05/17 12:41:53;;;;;;;8.32;2.10;;;18.20;99.90;;;;;;5055526;28;20202;-84
2023/05/17 12:44:21;;;;;;;8.52;2.13;;;18.30;99.90;;;;;;5074017;28;20208;-81
2023/05/17 12:46:52;;;;;;;9.60;1.92;;;18.30;99.90;;;;;;5075901;28;20870;-82
2023/05/17 12:49:21;;;;;;;9.30;2.25;;;18.10;99.90;;;;;;5059244;28;20273;-85